Time;durP1;ratioP1;P1;durP2;ratioP2;P2;SDS_P1;SDS_P2;PMS_P1;PMS_P2;Temp;Humidity;BMP_temperature;BMP_pressure;BME280_temperature;BME280_humidity;BME280_pressure;Samples;Min_cycle;Max_cycle;Signal;HPM_P1;HPM_P2
2023/06/16 00:00:19;;;;;;;8.77;7.87;;;20.00;42.80;;;;;;5073636;28;20212;-55
2023/06/16 00:02:45;;;;;;;10.48;8.40;;;20.00;42.80;;;;;;5073874;28;20181;-57
2023/06/16 00:05:12;;;;;;;9.63;8.73;;;19.90;43.10;;;;;;5072353;28;20644;-56
2023/06/16 00:07:39;;;;;;;8.88;7.97;;;19.80;42.90;;;;;;5073392;28;20202;-56
2023/06/16 00:10:08;;;;;;;8.95;8.05;;;19.80;43.00;;;;;;5073219;28;20251;-59
2023/06/16 00:12:35;;;;;;;11.15;8.52;;;19.80;43.00;;;;;;5073511;28;20210;-57
2023/06/16 00:15:02;;;;;;;9.95;8.85;;;19.80;43.00;;;;;;5073368;28;20233;-57
2023/06/16 00:17:27;;;;;;;9.63;8.70;;;19.80;43.00;;;;;;5073174;28;20646;-57
2023/06/16 00:19:59;;;;;;;9.47;8.57;;;19.80;42.70;;;;;;5073067;28;20211;-56
2023/06/16 00:22:26;;;;;;;9.77;8.75;;;19.80;42.60;;;;;;5073159;28;20444;-55
2023/06/16 00:24:53;;;;;;;9.80;8.80;;;19.80;42.70;;;;;;5073450;28;20638;-54
2023/06/16 00:27:24;;;;;;;9.48;8.57;;;19.70;43.10;;;;;;5073276;28;20174;-54
2023/06/16 00:29:50;;;;;;;9.95;8.90;;;19.70;43.20;;;;;;5072850;28;20210;-56
2023/06/16 00:32:16;;;;;;;9.10;7.53;;;19.60;43.30;;;;;;5073055;28;20560;-55
2023/06/16 00:34:42;;;;;;;9.10;8.20;;;19.60;43.60;;;;;;5072917;28;20176;-54
2023/06/16 00:37:08;;;;;;;9.00;6.88;;;19.60;43.40;;;;;;5073060;28;20399;-57
2023/06/16 00:39:34;;;;;;;10.43;8.10;;;19.60;43.70;;;;;;5072635;28;20199;-54
2023/06/16 00:42:00;;;;;;;8.57;7.37;;;19.60;43.70;;;;;;5072776;28;20200;-54
2023/06/16 00:44:25;;;;;;;10.20;7.53;;;19.60;43.50;;;;;;5072793;28;20180;-56
2023/06/16 00:46:51;;;;;;;9.67;8.00;;;19.60;43.70;;;;;;5071579;28;20180;-53
2023/06/16 00:49:17;;;;;;;7.80;7.10;;;19.50;43.70;;;;;;5072718;28;20188;-53
2023/06/16 00:51:44;;;;;;;9.30;7.80;;;19.50;43.90;;;;;;5072689;28;20694;-56
2023/06/16 00:54:12;;;;;;;11.70;7.53;;;19.60;43.60;;;;;;5072721;28;20247;-53
2023/06/16 00:56:38;;;;;;;8.03;7.27;;;19.50;43.80;;;;;;5072587;28;20468;-53
2023/06/16 00:59:05;;;;;;;7.80;7.00;;;19.50;44.00;;;;;;5072389;28;20430;-59
2023/06/16 01:01:31;;;;;;;7.18;6.45;;;19.50;44.20;;;;;;5072390;28;20447;-56
2023/06/16 01:03:57;;;;;;;8.90;8.17;;;19.60;44.00;;;;;;5072452;28;20253;-53
2023/06/16 01:07:09;;;;;;;8.90;6.57;;;19.50;44.80;;;;;;5072762;28;20177;-55
2023/06/16 01:09:41;;;;;;;8.68;7.78;;;19.50;43.80;;;;;;5071664;28;20180;-54
2023/06/16 01:12:18;;;;;;;7.40;6.65;;;19.50;43.80;;;;;;5072291;28;20188;-54
2023/06/16 01:14:56;;;;;;;8.60;7.80;;;19.50;44.10;;;;;;5072311;28;20555;-56
2023/06/16 01:17:23;;;;;;;11.68;7.95;;;19.50;44.40;;;;;;5072220;28;20157;-54
2023/06/16 01:19:57;;;;;;;7.85;7.05;;;19.50;44.50;;;;;;5072287;28;20180;-56
2023/06/16 01:22:34;;;;;;;8.38;7.47;;;19.60;44.70;;;;;;5072332;28;20173;-57
2023/06/16 01:25:03;;;;;;;8.40;7.68;;;19.60;44.50;;;;;;5072254;28;20156;-55
2023/06/16 01:27:30;;;;;;;10.15;7.97;;;19.70;44.40;;;;;;5072215;28;20274;-57
2023/06/16 01:29:58;;;;;;;11.80;8.60;;;19.70;44.30;;;;;;5072116;28;20196;-55
2023/06/16 01:32:26;;;;;;;8.75;7.53;;;19.70;44.30;;;;;;5072142;28;20637;-54
2023/06/16 01:34:53;;;;;;;8.93;7.85;;;19.80;44.00;;;;;;5072030;28;20180;-55
2023/06/16 01:37:20;;;;;;;10.60;8.05;;;19.80;43.80;;;;;;5071990;28;20169;-57
2023/06/16 01:39:46;;;;;;;7.97;7.18;;;19.90;43.90;;;;;;5071840;28;20644;-54
2023/06/16 01:42:15;;;;;;;7.95;6.95;;;19.90;43.90;;;;;;5071956;28;20228;-54
2023/06/16 01:44:43;;;;;;;8.80;7.90;;;19.90;44.00;;;;;;5072031;28;20165;-54
2023/06/16 01:47:09;;;;;;;8.75;7.78;;;19.90;44.10;;;;;;5071956;28;20173;-56
2023/06/16 01:49:35;;;;;;;8.93;7.82;;;19.80;43.90;;;;;;5071773;28;20211;-55
2023/06/16 01:52:01;;;;;;;7.82;7.13;;;19.80;44.00;;;;;;5071792;28;20679;-54
2023/06/16 01:54:27;;;;;;;7.83;6.53;;;19.80;44.30;;;;;;5072305;28;20181;-56
2023/06/16 01:56:53;;;;;;;9.47;8.67;;;19.80;44.50;;;;;;5071867;28;20725;-53
2023/06/16 01:59:18;;;;;;;8.50;7.10;;;19.80;44.60;;;;;;5071544;28;20434;-55
2023/06/16 02:01:52;;;;;;;9.13;7.20;;;19.80;44.70;;;;;;5072120;28;20331;-57
2023/06/16 02:04:22;;;;;;;8.40;7.60;;;19.90;44.90;;;;;;5072049;28;20202;-55
2023/06/16 02:07:04;;;;;;;8.60;7.00;;;19.90;44.90;;;;;;5071931;28;20231;-56
2023/06/16 02:09:33;;;;;;;7.32;6.63;;;19.90;44.80;;;;;;5071400;28;20193;-53
2023/06/16 02:11:59;;;;;;;8.48;6.78;;;19.90;44.40;;;;;;5073846;28;20232;-57
2023/06/16 02:14:27;;;;;;;9.30;7.20;;;19.90;44.40;;;;;;5075983;28;20203;-56
2023/06/16 02:16:53;;;;;;;10.30;8.20;;;19.90;44.40;;;;;;5075583;28;20632;-53
2023/06/16 02:19:19;;;;;;;8.95;8.10;;;19.90;44.40;;;;;;5075461;28;20231;-58
2023/06/16 02:21:45;;;;;;;10.40;8.30;;;19.90;44.40;;;;;;5075390;28;20680;-55
2023/06/16 02:24:11;;;;;;;9.45;8.05;;;19.90;44.40;;;;;;5075397;28;20399;-55
2023/06/16 02:26:37;;;;;;;9.10;8.17;;;19.90;44.30;;;;;;5075500;28;20214;-57
2023/06/16 02:29:03;;;;;;;10.77;7.80;;;19.90;44.30;;;;;;5075471;28;20193;-55
2023/06/16 02:31:29;;;;;;;8.48;7.28;;;19.90;44.30;;;;;;5075153;28;20168;-54
2023/06/16 02:33:56;;;;;;;8.23;7.33;;;19.80;44.30;;;;;;5075304;28;20169;-56
2023/06/16 02:36:22;;;;;;;7.93;7.13;;;19.80;44.80;;;;;;5075527;28;20407;-55
2023/06/16 02:38:47;;;;;;;7.70;7.00;;;19.80;44.20;;;;;;5075168;28;20218;-55
2023/06/16 02:41:14;;;;;;;8.27;7.23;;;19.70;44.20;;;;;;5075122;28;20508;-58
2023/06/16 02:43:40;;;;;;;7.93;7.22;;;19.70;44.10;;;;;;5075177;28;20457;-55
2023/06/16 02:46:06;;;;;;;7.80;7.00;;;19.70;44.20;;;;;;5075312;28;20633;-56
2023/06/16 02:48:32;;;;;;;8.15;7.35;;;19.70;44.10;;;;;;5074996;28;20210;-56
2023/06/16 02:50:58;;;;;;;7.80;6.90;;;19.70;44.20;;;;;;5074837;28;20711;-54
2023/06/16 02:53:29;;;;;;;7.53;6.80;;;19.60;44.30;;;;;;5074983;28;20200;-56
2023/06/16 02:55:56;;;;;;;8.13;7.30;;;19.60;44.40;;;;;;5075194;28;20176;-58
2023/06/16 02:58:22;;;;;;;8.45;7.60;;;19.60;44.30;;;;;;5074807;28;20192;-54
2023/06/16 03:00:47;;;;;;;8.90;8.00;;;19.60;44.30;;;;;;5074501;28;20287;-58
2023/06/16 03:03:14;;;;;;;8.17;7.40;;;19.60;44.30;;;;;;5074787;28;20244;-55
2023/06/16 03:05:40;;;;;;;8.02;7.22;;;19.60;44.20;;;;;;5074778;28;20446;-58
2023/06/16 03:08:06;;;;;;;8.17;7.17;;;19.60;44.20;;;;;;5075076;28;20192;-54
2023/06/16 03:10:32;;;;;;;7.43;6.73;;;19.50;44.10;;;;;;5074761;28;20410;-55
2023/06/16 03:12:58;;;;;;;9.63;7.60;;;19.50;44.10;;;;;;5074598;28;20188;-58
2023/06/16 03:15:25;;;;;;;7.87;7.17;;;19.50;44.30;;;;;;5074587;28;20177;-56
2023/06/16 03:18:28;;;;;;;9.55;7.10;;;19.40;44.30;;;;;;5074765;28;20192;-57
2023/06/16 03:20:54;;;;;;;9.48;8.55;;;19.40;44.30;;;;;;5074245;28;20631;-54
2023/06/16 03:23:20;;;;;;;11.70;6.88;;;19.40;44.50;;;;;;5073363;28;20177;-56
2023/06/16 03:25:46;;;;;;;9.57;7.38;;;19.40;44.60;;;;;;5074310;28;20188;-59
2023/06/16 03:28:13;;;;;;;8.93;7.32;;;19.30;45.00;;;;;;5074328;28;20212;-55
2023/06/16 03:30:38;;;;;;;7.20;6.55;;;19.30;45.00;;;;;;5074167;28;20176;-58
2023/06/16 03:33:04;;;;;;;11.27;7.90;;;19.30;45.00;;;;;;5074286;28;20226;-58
2023/06/16 03:35:30;;;;;;;10.30;7.57;;;19.30;45.00;;;;;;5074344;28;20229;-54
2023/06/16 03:37:56;;;;;;;7.80;6.77;;;19.40;45.00;;;;;;5073048;28;20434;-62
2023/06/16 03:40:22;;;;;;;9.73;6.33;;;19.40;45.00;;;;;;5073900;28;20197;-57
2023/06/16 03:42:47;;;;;;;7.97;7.17;;;19.50;45.20;;;;;;5074250;28;20176;-56
2023/06/16 03:45:13;;;;;;;8.27;7.47;;;19.40;45.30;;;;;;5074071;28;20250;-60
2023/06/16 03:47:40;;;;;;;8.23;7.37;;;19.40;45.20;;;;;;5074218;28;20238;-59
2023/06/16 03:50:06;;;;;;;8.55;7.30;;;19.50;45.30;;;;;;5073681;28;20172;-57
2023/06/16 03:52:31;;;;;;;7.97;7.22;;;19.50;45.40;;;;;;5073895;28;20251;-55
2023/06/16 03:54:57;;;;;;;11.63;7.60;;;19.50;45.30;;;;;;5073745;28;20196;-59
2023/06/16 03:57:23;;;;;;;8.73;7.50;;;19.50;45.40;;;;;;5073945;28;20180;-59
2023/06/16 03:59:48;;;;;;;7.03;6.30;;;19.40;45.30;;;;;;5073604;28;20518;-57
2023/06/16 04:02:16;;;;;;;7.83;7.13;;;19.40;45.40;;;;;;5073795;28;20200;-57
2023/06/16 04:04:45;;;;;;;8.93;7.50;;;19.40;45.40;;;;;;5073704;28;20657;-57
2023/06/16 04:07:11;;;;;;;7.55;6.75;;;19.40;45.40;;;;;;5073847;28;20181;-58
2023/06/16 04:09:38;;;;;;;12.23;8.13;;;19.40;45.40;;;;;;5073181;28;20181;-55
2023/06/16 04:12:04;;;;;;;8.55;7.63;;;19.50;45.50;;;;;;5073568;28;20195;-58
2023/06/16 04:14:30;;;;;;;8.88;7.97;;;19.50;45.40;;;;;;5073373;28;20260;-55
2023/06/16 04:16:56;;;;;;;14.73;9.20;;;19.50;45.60;;;;;;5073611;28;20211;-58
2023/06/16 04:19:22;;;;;;;7.60;7.00;;;19.50;45.50;;;;;;5071793;28;20763;-55
2023/06/16 04:21:48;;;;;;;8.18;7.32;;;19.50;45.70;;;;;;5073222;28;20522;-58
2023/06/16 04:24:14;;;;;;;8.17;7.37;;;19.50;45.90;;;;;;5055265;28;20267;-55
2023/06/16 04:26:43;;;;;;;8.82;7.95;;;19.60;45.80;;;;;;5073394;28;20406;-60
2023/06/16 04:29:09;;;;;;;7.97;7.15;;;19.60;45.70;;;;;;5072884;28;20196;-57
2023/06/16 04:31:37;;;;;;;8.27;7.40;;;19.70;45.90;;;;;;5073231;28;20175;-57
2023/06/16 04:34:05;;;;;;;9.60;8.60;;;19.80;45.70;;;;;;5072657;28;20450;-61
2023/06/16 04:36:31;;;;;;;8.32;7.13;;;19.90;45.40;;;;;;5072839;28;20180;-56
2023/06/16 04:38:58;;;;;;;10.30;7.80;;;20.00;45.30;;;;;;5071823;28;20188;-57
2023/06/16 04:41:24;;;;;;;13.85;7.13;;;20.10;45.70;;;;;;5072594;28;20200;-58
2023/06/16 04:43:50;;;;;;;10.40;7.40;;;20.30;45.20;;;;;;5072872;28;20214;-58
2023/06/16 04:46:15;;;;;;;8.77;7.87;;;20.40;44.90;;;;;;5072911;28;20918;-57
2023/06/16 04:48:41;;;;;;;8.63;7.77;;;20.50;44.50;;;;;;5072594;28;20192;-59
2023/06/16 04:51:08;;;;;;;9.05;8.15;;;20.60;44.50;;;;;;5072451;28;20200;-55
2023/06/16 04:53:36;;;;;;;8.52;7.57;;;20.70;44.70;;;;;;5072881;28;20181;-59
2023/06/16 04:56:02;;;;;;;9.38;8.20;;;20.80;44.70;;;;;;5072909;28;20180;-59
2023/06/16 04:58:29;;;;;;;9.07;8.00;;;20.90;44.10;;;;;;5072529;28;20254;-57
2023/06/16 05:00:54;;;;;;;9.88;8.85;;;21.00;43.40;;;;;;5072504;28;20541;-61
2023/06/16 05:03:20;;;;;;;9.00;8.10;;;21.10;43.30;;;;;;5072493;28;20264;-57
2023/06/16 05:05:46;;;;;;;9.30;8.40;;;21.20;43.00;;;;;;5071176;28;20406;-59
2023/06/16 05:08:12;;;;;;;11.30;8.67;;;21.30;42.60;;;;;;5072308;28;20180;-58
2023/06/16 05:10:38;;;;;;;8.63;7.33;;;21.30;42.60;;;;;;5072141;28;20765;-55
2023/06/16 05:13:04;;;;;;;8.55;7.75;;;21.30;42.30;;;;;;5072240;28;20441;-56
2023/06/16 05:15:30;;;;;;;10.30;7.70;;;21.40;42.60;;;;;;5072346;28;20165;-59
2023/06/16 05:17:56;;;;;;;7.57;6.77;;;21.50;41.10;;;;;;5072154;28;20461;-57
2023/06/16 05:20:21;;;;;;;11.93;7.13;;;21.60;41.30;;;;;;5072229;28;20201;-57
2023/06/16 05:22:47;;;;;;;7.60;6.80;;;21.60;40.70;;;;;;5072164;28;20402;-55
2023/06/16 05:25:13;;;;;;;11.00;7.30;;;21.70;40.50;;;;;;5072254;28;20171;-57
2023/06/16 05:27:39;;;;;;;10.47;6.60;;;21.80;39.70;;;;;;5072064;28;20446;-59
2023/06/16 05:30:05;;;;;;;7.60;6.83;;;21.80;39.60;;;;;;5071984;28;20172;-57
2023/06/16 05:32:31;;;;;;;8.05;6.40;;;21.80;39.70;;;;;;5072104;28;20405;-56
2023/06/16 05:34:57;;;;;;;7.13;6.43;;;22.00;39.30;;;;;;5072126;28;20172;-58
2023/06/16 05:37:23;;;;;;;8.40;7.00;;;22.10;39.40;;;;;;5071985;28;20193;-55
2023/06/16 05:39:50;;;;;;;8.73;7.10;;;22.10;39.40;;;;;;5072091;28;20435;-56
2023/06/16 05:42:15;;;;;;;7.90;7.10;;;22.20;38.40;;;;;;5072240;28;20196;-59
2023/06/16 05:44:42;;;;;;;9.43;6.20;;;22.30;38.60;;;;;;5072084;28;20763;-56
2023/06/16 05:47:08;;;;;;;10.33;7.00;;;22.40;38.50;;;;;;5071255;28;20183;-55
2023/06/16 05:49:34;;;;;;;10.93;7.13;;;22.40;38.60;;;;;;5071816;28;20419;-55
2023/06/16 05:52:02;;;;;;;9.27;6.53;;;22.50;38.60;;;;;;5071947;28;20438;-58
2023/06/16 05:54:28;;;;;;;8.07;7.37;;;22.60;38.50;;;;;;5071941;28;20490;-56
2023/06/16 05:56:55;;;;;;;6.80;6.10;;;22.70;37.70;;;;;;5072014;28;20438;-54
2023/06/16 05:59:21;;;;;;;8.20;6.40;;;22.70;38.30;;;;;;5070233;28;20513;-58
2023/06/16 06:01:49;;;;;;;7.80;6.90;;;22.80;38.20;;;;;;5071778;28;20291;-53
2023/06/16 06:04:19;;;;;;;6.40;5.73;;;22.90;38.00;;;;;;5072097;28;20177;-58
2023/06/16 06:06:44;;;;;;;9.13;6.97;;;23.00;38.00;;;;;;5072363;28;20456;-54
2023/06/16 06:09:10;;;;;;;8.53;5.70;;;23.10;37.20;;;;;;5071811;28;20418;-56
2023/06/16 06:11:36;;;;;;;7.20;5.40;;;23.20;37.20;;;;;;5071553;28;20172;-56
2023/06/16 06:14:02;;;;;;;8.53;6.03;;;23.20;36.50;;;;;;5071651;28;20192;-58
2023/06/16 06:16:28;;;;;;;13.87;7.70;;;23.30;36.40;;;;;;5071583;28;20181;-57
2023/06/16 06:18:53;;;;;;;5.63;5.10;;;23.30;36.40;;;;;;5071839;28;20196;-56
2023/06/16 06:21:19;;;;;;;9.17;6.87;;;23.30;35.90;;;;;;5071353;28;20811;-58
2023/06/16 06:23:45;;;;;;;7.80;6.63;;;23.40;35.90;;;;;;5071715;28;20176;-55
2023/06/16 06:26:11;;;;;;;9.97;6.70;;;23.40;35.70;;;;;;5071895;28;21005;-57
2023/06/16 06:28:36;;;;;;;7.47;6.10;;;23.50;35.70;;;;;;5070270;28;20211;-59
2023/06/16 06:31:02;;;;;;;9.03;5.60;;;23.50;35.60;;;;;;5071341;28;20165;-55
2023/06/16 06:33:28;;;;;;;7.80;5.73;;;23.60;35.80;;;;;;5071582;28;20207;-59
2023/06/16 06:35:53;;;;;;;10.13;6.67;;;23.70;35.80;;;;;;5071501;28;20176;-60
2023/06/16 06:38:19;;;;;;;7.80;5.63;;;23.70;35.40;;;;;;5071429;28;20200;-57
2023/06/16 06:40:45;;;;;;;8.10;6.73;;;23.70;35.50;;;;;;5071445;28;20258;-59
2023/06/16 06:43:11;;;;;;;9.53;6.80;;;23.90;35.20;;;;;;5071506;28;20411;-56
2023/06/16 06:45:37;;;;;;;10.10;6.00;;;23.90;35.30;;;;;;5071382;28;20633;-56
2023/06/16 06:48:03;;;;;;;14.37;7.00;;;24.10;35.30;;;;;;5071478;28;20449;-57
2023/06/16 06:50:29;;;;;;;9.00;6.20;;;24.10;35.50;;;;;;5071463;28;20165;-54
2023/06/16 06:52:55;;;;;;;9.77;7.00;;;24.20;35.60;;;;;;5071618;28;20407;-58
2023/06/16 06:55:20;;;;;;;6.90;6.30;;;24.30;35.90;;;;;;5071571;28;20247;-56
2023/06/16 06:57:49;;;;;;;9.27;6.70;;;24.40;36.20;;;;;;5073184;28;20275;-55
2023/06/16 07:00:15;;;;;;;8.93;6.93;;;24.50;35.60;;;;;;5074650;28;20223;-57
2023/06/16 07:02:41;;;;;;;10.60;7.63;;;24.60;35.20;;;;;;5074919;28;20932;-56
2023/06/16 07:05:08;;;;;;;8.20;7.47;;;24.70;35.40;;;;;;5075138;28;20812;-59
2023/06/16 07:07:34;;;;;;;7.93;6.70;;;24.80;34.80;;;;;;5074965;28;20476;-57
2023/06/16 07:10:00;;;;;;;7.40;5.67;;;24.80;35.00;;;;;;5074916;28;20409;-55
2023/06/16 07:12:26;;;;;;;11.27;7.00;;;24.80;34.90;;;;;;5074572;28;20926;-54
2023/06/16 07:14:52;;;;;;;9.53;6.17;;;24.80;34.90;;;;;;5074687;28;20407;-58
2023/06/16 07:17:18;;;;;;;7.37;6.60;;;24.90;34.90;;;;;;5074746;28;20830;-55
2023/06/16 07:19:44;;;;;;;10.27;6.80;;;24.90;34.50;;;;;;5074736;28;20411;-55
2023/06/16 07:22:10;;;;;;;7.67;6.93;;;25.00;34.50;;;;;;5074673;28;20885;-57
2023/06/16 07:24:36;;;;;;;13.07;5.73;;;25.00;34.50;;;;;;5074646;28;20403;-55
2023/06/16 07:27:02;;;;;;;6.83;6.17;;;25.00;34.40;;;;;;5074785;28;20490;-56
2023/06/16 07:29:28;;;;;;;7.90;5.90;;;25.00;34.30;;;;;;5074433;28;20196;-58
2023/06/16 07:31:54;;;;;;;7.60;6.80;;;25.10;34.20;;;;;;5074807;28;20406;-55
2023/06/16 07:34:20;;;;;;;8.03;6.60;;;25.10;33.10;;;;;;5074556;28;20456;-58
2023/06/16 07:36:46;;;;;;;7.40;5.57;;;25.00;33.50;;;;;;5074369;28;20411;-56
2023/06/16 07:39:12;;;;;;;11.20;6.93;;;25.00;34.00;;;;;;5074143;28;20220;-54
2023/06/16 07:41:38;;;;;;;10.70;7.17;;;25.00;34.10;;;;;;5074272;28;20858;-56
2023/06/16 07:44:05;;;;;;;7.93;7.07;;;25.00;34.20;;;;;;5074523;28;20409;-56
2023/06/16 07:46:32;;;;;;;12.80;7.20;;;25.00;34.10;;;;;;5074196;28;20810;-56
2023/06/16 07:48:58;;;;;;;9.93;7.53;;;25.00;33.60;;;;;;5074373;28;20767;-56
2023/06/16 07:51:25;;;;;;;7.77;6.90;;;24.90;33.80;;;;;;5073951;28;20775;-56
2023/06/16 07:53:51;;;;;;;9.57;6.80;;;24.80;33.90;;;;;;5073951;28;20433;-56
2023/06/16 07:56:18;;;;;;;8.47;6.70;;;24.70;33.90;;;;;;5073889;28;20933;-58
2023/06/16 07:58:44;;;;;;;6.90;6.23;;;24.50;34.60;;;;;;5073699;28;20779;-58
2023/06/16 08:01:10;;;;;;;8.30;6.53;;;24.60;34.70;;;;;;5073573;28;20912;-55
2023/06/16 08:03:36;;;;;;;11.20;7.83;;;24.60;35.00;;;;;;5073863;28;20411;-58
2023/06/16 08:06:03;;;;;;;7.40;6.70;;;24.70;34.30;;;;;;5073906;28;20764;-55
2023/06/16 08:08:29;;;;;;;8.90;7.30;;;24.70;34.70;;;;;;5073165;28;20279;-55
2023/06/16 08:10:56;;;;;;;7.10;6.27;;;24.80;33.90;;;;;;5073718;28;20953;-57
2023/06/16 08:13:22;;;;;;;7.20;6.50;;;24.80;34.00;;;;;;5073510;28;20431;-55
2023/06/16 08:15:48;;;;;;;8.87;6.70;;;24.80;34.30;;;;;;5073726;28;20446;-56
2023/06/16 08:18:14;;;;;;;10.10;7.43;;;25.00;34.90;;;;;;5073380;28;20423;-58
2023/06/16 08:20:39;;;;;;;8.20;6.33;;;25.20;34.70;;;;;;5073621;28;20265;-55
2023/06/16 08:23:06;;;;;;;7.90;6.57;;;25.30;34.80;;;;;;5073504;28;20228;-58
2023/06/16 08:25:32;;;;;;;6.87;6.17;;;25.40;35.10;;;;;;5073732;28;20908;-55
2023/06/16 08:27:58;;;;;;;7.00;6.30;;;25.60;34.60;;;;;;5073208;28;20441;-56
2023/06/16 08:30:24;;;;;;;8.40;6.20;;;25.60;33.70;;;;;;5073009;28;20169;-58
2023/06/16 08:32:51;;;;;;;8.23;7.43;;;25.60;33.50;;;;;;5073224;28;20172;-60
2023/06/16 08:35:17;;;;;;;11.73;6.60;;;25.60;33.50;;;;;;5055528;28;20418;-54
2023/06/16 08:37:43;;;;;;;9.60;6.60;;;25.50;33.50;;;;;;5073063;28;20427;-57
2023/06/16 08:40:10;;;;;;;8.10;6.50;;;25.40;33.40;;;;;;5072726;28;20180;-59
2023/06/16 08:42:41;;;;;;;8.00;7.20;;;25.40;33.40;;;;;;5072956;28;20176;-55
2023/06/16 08:45:08;;;;;;;6.93;6.00;;;25.40;33.70;;;;;;5072982;28;20756;-59
2023/06/16 08:47:35;;;;;;;7.13;6.43;;;25.40;33.90;;;;;;5072706;28;20427;-58
2023/06/16 08:50:00;;;;;;;6.73;5.93;;;25.60;33.90;;;;;;5072677;28;20410;-55
2023/06/16 08:52:29;;;;;;;8.10;7.30;;;25.60;33.90;;;;;;5072985;28;20410;-56
2023/06/16 08:55:01;;;;;;;9.17;7.60;;;25.60;33.80;;;;;;5072679;28;20484;-56
2023/06/16 08:57:30;;;;;;;7.23;6.00;;;25.60;33.90;;;;;;5072792;28;20433;-55
2023/06/16 08:59:59;;;;;;;10.13;7.63;;;25.50;34.40;;;;;;5072638;28;20412;-56
2023/06/16 09:02:29;;;;;;;11.23;7.37;;;25.50;34.40;;;;;;5072471;28;20954;-55
2023/06/16 09:04:56;;;;;;;7.67;6.70;;;25.50;34.10;;;;;;5072863;28;20438;-56
2023/06/16 09:07:27;;;;;;;7.40;6.00;;;25.50;34.70;;;;;;5072606;28;20411;-58
2023/06/16 09:09:55;;;;;;;6.40;4.90;;;25.40;34.50;;;;;;5072274;28;20808;-55
2023/06/16 09:12:21;;;;;;;9.10;5.33;;;25.30;34.80;;;;;;5072477;28;20435;-56
2023/06/16 09:14:50;;;;;;;5.63;4.33;;;25.30;34.40;;;;;;5072465;28;20854;-58
2023/06/16 09:17:24;;;;;;;4.40;3.83;;;25.30;34.30;;;;;;5072384;28;20398;-55
2023/06/16 09:19:52;;;;;;;9.67;4.87;;;25.30;34.90;;;;;;5072212;28;20395;-55
2023/06/16 09:22:23;;;;;;;4.93;4.13;;;25.30;34.80;;;;;;5071892;28;20533;-56
2023/06/16 09:24:56;;;;;;;5.20;4.20;;;25.30;33.90;;;;;;5072615;28;20850;-55
2023/06/16 09:27:26;;;;;;;5.97;4.53;;;25.10;34.50;;;;;;5072415;28;20407;-60
2023/06/16 09:29:58;;;;;;;7.37;4.50;;;24.90;35.40;;;;;;5071982;28;20394;-60
2023/06/16 09:32:24;;;;;;;5.40;4.87;;;24.80;36.60;;;;;;5072021;28;20422;-56
2023/06/16 09:34:50;;;;;;;6.80;6.13;;;24.80;37.80;;;;;;5072175;28;20931;-58
2023/06/16 09:37:20;;;;;;;6.43;5.53;;;24.70;38.40;;;;;;5072551;28;20407;-58
2023/06/16 09:39:46;;;;;;;5.90;4.80;;;24.60;39.20;;;;;;5071942;28;20176;-56
2023/06/16 09:42:12;;;;;;;6.23;4.60;;;24.40;38.50;;;;;;5072489;28;20489;-58
2023/06/16 09:44:40;;;;;;;5.53;4.10;;;24.30;38.30;;;;;;5072452;28;20414;-56
2023/06/16 09:47:10;;;;;;;5.47;4.93;;;24.20;38.60;;;;;;5072039;28;20415;-56
2023/06/16 09:49:36;;;;;;;9.20;5.30;;;24.10;38.90;;;;;;5071974;28;20425;-58
2023/06/16 09:52:02;;;;;;;4.90;4.40;;;24.10;38.90;;;;;;5071898;28;20480;-58
2023/06/16 09:54:28;;;;;;;5.90;5.30;;;24.10;39.50;;;;;;5072022;28;20414;-56
2023/06/16 09:56:59;;;;;;;6.10;3.60;;;24.00;38.80;;;;;;5072158;28;20528;-59
2023/06/16 09:59:27;;;;;;;6.97;5.03;;;24.10;38.70;;;;;;5072121;28;20434;-55
2023/06/16 10:01:55;;;;;;;5.97;5.30;;;24.00;38.40;;;;;;5072165;28;20478;-57
2023/06/16 10:04:22;;;;;;;6.00;4.33;;;24.00;38.50;;;;;;5072307;28;20403;-58
2023/06/16 10:07:02;;;;;;;4.73;4.13;;;24.00;38.40;;;;;;5071945;28;20407;-55
2023/06/16 10:09:38;;;;;;;4.43;4.03;;;24.00;37.50;;;;;;5071697;28;20448;-56
2023/06/16 10:12:04;;;;;;;5.73;4.33;;;24.10;38.10;;;;;;5071708;28;20513;-56
2023/06/16 10:14:33;;;;;;;8.40;5.10;;;24.00;38.20;;;;;;5072131;28;20419;-55
2023/06/16 10:17:00;;;;;;;5.60;5.10;;;24.00;37.60;;;;;;5071798;28;20422;-57
2023/06/16 10:19:28;;;;;;;5.17;4.67;;;24.00;38.20;;;;;;5071427;28;20434;-56
2023/06/16 10:21:55;;;;;;;5.67;4.70;;;24.10;38.20;;;;;;5071627;28;20815;-55
2023/06/16 10:24:21;;;;;;;5.70;4.40;;;24.10;38.40;;;;;;5071677;28;20794;-58
2023/06/16 10:26:49;;;;;;;5.30;4.80;;;24.20;38.40;;;;;;5071904;28;20411;-57
2023/06/16 10:29:20;;;;;;;4.90;4.30;;;24.10;37.90;;;;;;5071671;28;20488;-55
2023/06/16 10:31:49;;;;;;;5.97;5.13;;;24.10;38.00;;;;;;5071989;28;20409;-58
2023/06/16 10:34:23;;;;;;;5.63;5.13;;;24.10;38.40;;;;;;5075499;28;20436;-55
2023/06/16 10:36:54;;;;;;;5.27;4.40;;;24.20;38.70;;;;;;5074021;28;20484;-56
2023/06/16 10:39:20;;;;;;;7.60;4.50;;;24.20;38.60;;;;;;5075040;28;20430;-58
2023/06/16 10:41:58;;;;;;;5.70;4.50;;;24.10;38.20;;;;;;5075267;28;20454;-56
2023/06/16 10:44:31;;;;;;;5.07;4.33;;;24.10;38.10;;;;;;5075334;28;20403;-56
2023/06/16 10:47:09;;;;;;;5.23;4.73;;;23.90;38.40;;;;;;5075166;28;20927;-58
2023/06/16 10:50:00;;;;;;;6.53;5.33;;;23.90;38.30;;;;;;5074745;28;20426;-55
2023/06/16 10:52:28;;;;;;;4.83;4.40;;;23.90;38.60;;;;;;5075262;28;20406;-55
2023/06/16 10:54:58;;;;;;;5.70;5.10;;;23.90;38.90;;;;;;5075171;28;20406;-58
2023/06/16 10:57:25;;;;;;;5.90;4.67;;;23.90;38.70;;;;;;5074887;28;20782;-58
2023/06/16 11:00:10;;;;;;;5.60;5.00;;;23.90;39.00;;;;;;5074635;28;20406;-56
2023/06/16 11:02:38;;;;;;;5.17;4.67;;;23.90;38.70;;;;;;5074921;28;20930;-58
2023/06/16 11:05:09;;;;;;;6.07;5.47;;;23.80;38.50;;;;;;5074998;28;20399;-55
2023/06/16 11:08:05;;;;;;;5.20;4.67;;;23.70;38.70;;;;;;5074746;28;20438;-54
2023/06/16 11:10:56;;;;;;;8.43;5.17;;;23.70;38.70;;;;;;5074378;28;20415;-56
2023/06/16 11:13:36;;;;;;;6.30;5.70;;;23.60;38.50;;;;;;5074582;28;20513;-58
2023/06/16 11:16:03;;;;;;;5.77;5.20;;;23.50;38.80;;;;;;5074646;28;20383;-55
2023/06/16 11:18:31;;;;;;;7.40;6.40;;;23.40;38.70;;;;;;5074665;28;20427;-56
2023/06/16 11:21:01;;;;;;;6.10;5.20;;;23.30;38.40;;;;;;5074658;28;20537;-56
2023/06/16 11:23:27;;;;;;;6.67;5.60;;;23.20;38.80;;;;;;5074487;28;20748;-58
2023/06/16 11:26:15;;;;;;;6.63;5.50;;;23.20;39.10;;;;;;5074214;28;20410;-58
2023/06/16 11:28:42;;;;;;;6.67;5.97;;;23.10;39.80;;;;;;5075927;28;20204;-57
2023/06/16 11:31:09;;;;;;;5.87;5.00;;;23.00;40.30;;;;;;5073020;28;20457;-55
2023/06/16 11:33:35;;;;;;;4.53;3.80;;;23.00;40.60;;;;;;5066980;28;20431;-55
2023/06/16 11:36:20;;;;;;;5.37;4.40;;;23.00;40.30;;;;;;5063766;28;20423;-56
2023/06/16 11:38:49;;;;;;;12.67;5.70;;;23.00;40.40;;;;;;5053128;28;20432;-55
2023/06/16 11:41:19;;;;;;;6.93;5.03;;;22.80;40.50;;;;;;5067330;28;20561;-57
2023/06/16 11:43:46;;;;;;;9.90;4.77;;;22.80;41.60;;;;;;5071843;28;20419;-54
2023/06/16 11:46:12;;;;;;;5.97;5.37;;;22.80;40.60;;;;;;5073287;28;20960;-54
2023/06/16 11:48:38;;;;;;;5.30;4.80;;;22.80;40.90;;;;;;5073017;28;20522;-54
2023/06/16 11:51:07;;;;;;;5.23;4.73;;;22.80;41.20;;;;;;5073842;28;20458;-54
2023/06/16 11:53:35;;;;;;;7.37;5.00;;;22.70;41.20;;;;;;5073929;28;20418;-55
2023/06/16 11:56:04;;;;;;;5.00;4.60;;;22.80;41.60;;;;;;5074099;28;20415;-54
2023/06/16 11:58:30;;;;;;;5.33;4.73;;;22.80;41.70;;;;;;5073817;28;20441;-54
2023/06/16 12:01:00;;;;;;;4.60;4.20;;;22.90;41.80;;;;;;5073713;28;20462;-58
2023/06/16 12:03:31;;;;;;;4.37;3.97;;;23.00;41.60;;;;;;5073651;28;20403;-55
2023/06/16 12:05:58;;;;;;;4.83;3.83;;;22.90;41.40;;;;;;5073710;28;20411;-56
2023/06/16 12:08:45;;;;;;;6.03;4.20;;;22.80;41.40;;;;;;5073497;28;20843;-57
2023/06/16 12:11:17;;;;;;;5.60;4.80;;;22.70;41.80;;;;;;5073392;28;20407;-57
2023/06/16 12:13:43;;;;;;;5.93;4.03;;;22.60;41.70;;;;;;5073320;28;20466;-54
2023/06/16 12:16:11;;;;;;;4.90;4.40;;;22.60;42.30;;;;;;5073515;28;20414;-55
2023/06/16 12:18:37;;;;;;;4.67;3.90;;;22.60;43.30;;;;;;5073272;28;20431;-57
2023/06/16 12:21:24;;;;;;;6.50;5.10;;;22.60;43.70;;;;;;5072971;28;20455;-54
2023/06/16 12:23:52;;;;;;;5.60;4.63;;;22.70;44.00;;;;;;5073308;28;20395;-56
2023/06/16 12:26:41;;;;;;;4.93;3.90;;;22.70;43.50;;;;;;5073248;28;20439;-54
2023/06/16 12:29:12;;;;;;;5.67;5.17;;;22.80;43.20;;;;;;5072468;28;20443;-55
2023/06/16 12:31:57;;;;;;;5.70;4.10;;;22.80;43.00;;;;;;5073007;28;20918;-54
2023/06/16 12:34:25;;;;;;;5.60;5.10;;;22.90;42.90;;;;;;5071829;28;20467;-55
2023/06/16 12:36:58;;;;;;;6.90;4.77;;;22.80;42.80;;;;;;5072926;28;20968;-56
2023/06/16 12:39:24;;;;;;;5.63;4.87;;;22.90;42.70;;;;;;5072683;28;20427;-57
2023/06/16 12:42:05;;;;;;;5.90;5.30;;;23.10;42.70;;;;;;5073114;28;20452;-55
2023/06/16 12:44:45;;;;;;;5.93;4.70;;;23.30;42.10;;;;;;5072823;28;20437;-55
2023/06/16 12:47:12;;;;;;;5.40;4.90;;;23.40;42.00;;;;;;5073080;28;20428;-58
2023/06/16 12:49:38;;;;;;;6.27;4.30;;;23.50;42.50;;;;;;5072534;28;20403;-58